createdAt,value
2023-04-27T00:03:27.570Z,3.20
2023-04-27T00:08:32.000Z,3.13
2023-04-27T00:13:34.582Z,3.00
2023-04-27T00:18:38.095Z,3.03
2023-04-27T00:23:41.976Z,3.50
2023-04-27T00:28:44.507Z,3.03
2023-04-27T00:33:47.029Z,2.63
2023-04-27T00:38:53.292Z,2.57
2023-04-27T00:43:55.861Z,2.57
2023-04-27T00:48:58.433Z,2.73
2023-04-27T00:54:02.472Z,2.33
2023-04-27T00:59:06.319Z,2.60
2023-04-27T01:04:09.408Z,2.53
2023-04-27T01:09:13.804Z,2.90
2023-04-27T01:14:17.236Z,2.67
2023-04-27T01:19:20.210Z,2.67
2023-04-27T01:24:24.146Z,3.13
2023-04-27T01:29:26.730Z,2.30
2023-04-27T01:34:29.287Z,2.87
2023-04-27T01:39:33.377Z,2.80
2023-04-27T01:44:36.434Z,3.30
2023-04-27T01:49:38.962Z,2.97
2023-04-27T01:54:42.957Z,2.20
2023-04-27T01:59:45.936Z,2.67
2023-04-27T02:04:48.517Z,2.43
2023-04-27T02:09:52.569Z,2.60
2023-04-27T02:14:55.620Z,2.53
2023-04-27T02:19:59.838Z,2.60
2023-04-27T02:25:04.412Z,2.50
2023-04-27T02:30:08.938Z,2.80
2023-04-27T02:35:12.610Z,2.60
2023-04-27T02:40:16.669Z,2.60
2023-04-27T02:45:19.322Z,2.60
2023-04-27T02:50:22.201Z,3.00
2023-04-27T02:55:27.589Z,3.23
2023-04-27T03:00:30.254Z,2.87
2023-04-27T03:05:33.014Z,3.10
2023-04-27T03:10:37.106Z,3.00
2023-04-27T03:15:39.691Z,2.80
2023-04-27T03:20:42.269Z,3.07
2023-04-27T03:25:46.459Z,3.03
2023-04-27T03:30:49.061Z,3.00
2023-04-27T03:35:56.108Z,2.40
2023-04-27T03:41:00.218Z,2.80
2023-04-27T03:46:02.959Z,2.70
2023-04-27T03:51:06.025Z,3.00
2023-04-27T03:56:11.342Z,2.87
2023-04-27T04:01:15.016Z,3.13
2023-04-27T04:06:17.778Z,2.97
2023-04-27T04:11:22.723Z,3.27
2023-04-27T04:16:27.466Z,3.50
2023-04-27T04:21:31.786Z,4.73
2023-04-27T04:26:35.712Z,5.03
2023-04-27T04:31:38.487Z,4.37
2023-04-27T04:36:41.510Z,4.03
2023-04-27T04:41:45.864Z,3.50
2023-04-27T04:46:49.960Z,5.27
2023-04-27T04:51:53.500Z,8.63
2023-04-27T04:56:58.353Z,8.57
2023-04-27T05:02:04.184Z,7.40
2023-04-27T05:07:08.188Z,8.33
2023-04-27T05:12:13.051Z,8.73
2023-04-27T05:17:17.498Z,7.90
2023-04-27T05:22:22.150Z,5.00
2023-04-27T05:27:26.901Z,4.23
2023-04-27T05:32:38.439Z,6.70
2023-04-27T05:37:43.860Z,6.80
2023-04-27T05:42:49.364Z,6.17
2023-04-27T05:47:54.805Z,6.83
2023-04-27T05:52:58.674Z,8.13
2023-04-27T05:58:08.702Z,5.90
2023-04-27T06:03:14.904Z,4.43
2023-04-27T06:08:27.813Z,4.17
2023-04-27T06:13:33.712Z,3.87
2023-04-27T06:18:38.448Z,4.20
2023-04-27T06:23:44.407Z,4.37
2023-04-27T06:28:50.658Z,4.17
2023-04-27T06:34:02.187Z,4.40
2023-04-27T06:39:06.960Z,4.20
2023-04-27T06:44:20.293Z,4.03
2023-04-27T06:49:32.075Z,4.93
2023-04-27T06:54:37.114Z,4.60
2023-04-27T06:59:44.426Z,4.18
2023-04-27T07:04:49.481Z,5.22
2023-04-27T07:09:53.662Z,4.38
2023-04-27T07:14:59.554Z,5.00
2023-04-27T07:20:11.382Z,4.43
2023-04-27T07:25:19.604Z,5.00
2023-04-27T07:30:29.652Z,5.28
2023-04-27T07:35:33.022Z,4.93
2023-04-27T07:40:40.661Z,5.03
2023-04-27T07:45:46.985Z,4.20
2023-04-27T07:50:57.506Z,4.38
2023-04-27T07:56:04.280Z,4.82
2023-04-27T08:01:23.581Z,4.75
2023-04-27T08:06:33.288Z,5.57
2023-04-27T08:11:38.585Z,4.50
2023-04-27T08:16:44.983Z,5.45
2023-04-27T08:21:52.779Z,5.70
2023-04-27T08:26:58.647Z,6.25
2023-04-27T08:32:17.150Z,6.05
2023-04-27T08:37:25.836Z,5.40
2023-04-27T08:42:30.621Z,5.22
2023-04-27T08:47:46.198Z,4.78
2023-04-27T08:52:59.796Z,4.90
2023-04-27T08:58:07.781Z,5.38
2023-04-27T09:03:24.202Z,4.82
2023-04-27T09:08:33.650Z,4.40
2023-04-27T09:13:46.779Z,5.40
2023-04-27T09:18:58.891Z,4.38
2023-04-27T09:24:21.163Z,4.57
2023-04-27T09:29:35.402Z,4.75
2023-04-27T09:34:59.147Z,4.22
2023-04-27T09:40:15.978Z,4.90
2023-04-27T09:45:29.559Z,4.45
2023-04-27T09:50:44.606Z,4.22
2023-04-27T09:56:01.862Z,4.50
2023-04-27T10:01:16.261Z,4.88
2023-04-27T10:06:37.412Z,5.82
2023-04-27T10:11:42.221Z,4.95
2023-04-27T10:16:45.779Z,4.90
2023-04-27T10:22:00.319Z,4.55
2023-04-27T10:27:12.541Z,4.35
2023-04-27T10:32:23.440Z,4.55
2023-04-27T10:37:45.713Z,4.72
2023-04-27T10:42:57.454Z,4.55
2023-04-27T10:48:04.113Z,5.18
2023-04-27T10:53:15.383Z,4.53
2023-04-27T10:58:41.092Z,4.70
2023-04-27T11:04:03.558Z,4.38
2023-04-27T11:09:30.449Z,4.50
2023-04-27T11:14:39.197Z,4.90
2023-04-27T11:19:52.629Z,4.75
2023-04-27T11:24:59.206Z,5.50
2023-04-27T11:30:03.379Z,5.30
2023-04-27T11:35:06.424Z,4.95
2023-04-27T11:40:10.397Z,4.90
2023-04-27T11:45:14.508Z,5.70
2023-04-27T11:50:17.115Z,5.55
2023-04-27T11:55:21.267Z,5.63
2023-04-27T12:00:25.452Z,5.88
2023-04-27T12:05:34.457Z,5.78
2023-04-27T12:10:50.150Z,5.68
2023-04-27T12:16:11.310Z,5.30
2023-04-27T12:21:21.188Z,5.53
2023-04-27T12:26:33.137Z,5.05
2023-04-27T12:31:38.561Z,5.15
2023-04-27T12:36:42.994Z,4.22
2023-04-27T12:41:47.981Z,5.50
2023-04-27T12:46:53.221Z,4.35
2023-04-27T12:52:10.146Z,4.65
2023-04-27T12:57:29.304Z,4.28
2023-04-27T13:02:40.269Z,4.55
2023-04-27T13:07:45.216Z,4.47
2023-04-27T13:12:52.181Z,3.97
2023-04-27T13:17:58.943Z,4.13
2023-04-27T13:23:03.981Z,4.18
2023-04-27T13:28:20.100Z,4.50
2023-04-27T13:33:40.119Z,4.43
2023-04-27T13:38:51.019Z,4.50
2023-04-27T13:44:05.904Z,4.45
2023-04-27T13:49:15.361Z,4.53
2023-04-27T13:54:24.616Z,4.15
2023-04-27T13:59:27.695Z,4.25
2023-04-27T14:04:31.889Z,4.10
2023-04-27T14:09:34.672Z,4.68
2023-04-27T14:14:37.403Z,4.13
2023-04-27T14:19:43.186Z,4.38
2023-04-27T14:24:49.293Z,4.35
2023-04-27T14:30:01.380Z,4.25
2023-04-27T14:35:13.900Z,3.70
2023-04-27T14:40:30.118Z,3.97
2023-04-27T14:45:51.626Z,4.05
2023-04-27T14:51:13.090Z,3.65
2023-04-27T14:56:31.292Z,3.53
2023-04-27T15:01:44.361Z,5.38
2023-04-27T15:06:57.625Z,3.75
2023-04-27T15:12:05.166Z,3.95
2023-04-27T15:17:11.144Z,3.97
2023-04-27T15:22:25.108Z,3.92
2023-04-27T15:27:31.240Z,4.07
2023-04-27T15:32:37.529Z,4.03
2023-04-27T15:37:42.185Z,3.92
2023-04-27T15:42:44.932Z,3.90
2023-04-27T15:47:47.676Z,4.00
2023-04-27T15:52:52.577Z,3.58
2023-04-27T15:57:55.532Z,3.47
2023-04-27T16:02:58.229Z,3.33
2023-04-27T16:08:02.280Z,3.42
2023-04-27T16:13:04.953Z,3.60
2023-04-27T16:18:07.901Z,3.08
2023-04-27T16:23:11.993Z,3.10
2023-04-27T16:28:15.172Z,3.47
2023-04-27T16:33:19.240Z,3.17
2023-04-27T16:38:23.332Z,3.20
2023-04-27T16:43:26.094Z,3.20
2023-04-27T16:48:29.585Z,2.92
2023-04-27T16:53:33.878Z,3.90
2023-04-27T16:58:36.626Z,3.17
2023-04-27T17:03:39.358Z,3.53
2023-04-27T17:08:43.586Z,3.08
2023-04-27T17:13:46.747Z,3.08
2023-04-27T17:18:49.572Z,3.75
2023-04-27T17:23:53.586Z,3.58
2023-04-27T17:28:59.871Z,3.75
2023-04-27T17:34:03.546Z,3.60
2023-04-27T17:39:07.774Z,3.60
2023-04-27T17:44:12.072Z,3.28
2023-04-27T17:49:15.315Z,2.78
2023-04-27T17:54:19.501Z,2.90
2023-04-27T17:59:22.098Z,3.20
2023-04-27T18:04:25.176Z,3.33
2023-04-27T18:09:30.837Z,2.95
2023-04-27T18:14:35.478Z,2.75
2023-04-27T18:19:38.065Z,3.50
2023-04-27T18:24:42.515Z,3.30
2023-04-27T18:29:45.493Z,3.80
2023-04-27T18:34:48.178Z,3.92
2023-04-27T18:39:52.956Z,2.78
2023-04-27T18:44:58.114Z,3.10
2023-04-27T18:50:01.790Z,3.42
2023-04-27T18:55:16.436Z,3.70
2023-04-27T19:00:19.251Z,3.22
2023-04-27T19:05:21.898Z,3.35
2023-04-27T19:10:26.043Z,3.58
2023-04-27T19:15:28.608Z,3.42
2023-04-27T19:20:31.329Z,3.58
2023-04-27T19:25:35.223Z,3.97
2023-04-27T19:30:37.797Z,4.00
2023-04-27T19:35:40.348Z,3.85
2023-04-27T19:40:44.388Z,3.53
2023-04-27T19:45:49.081Z,3.75
2023-04-27T19:50:52.072Z,3.78
2023-04-27T19:55:57.168Z,4.05
2023-04-27T20:01:30.480Z,3.60
2023-04-27T20:06:34.210Z,3.40
2023-04-27T20:11:38.363Z,3.53
2023-04-27T20:16:41.021Z,3.50
2023-04-27T20:21:44.233Z,3.67
2023-04-27T20:26:48.257Z,3.70
2023-04-27T20:31:51.527Z,3.92
2023-04-27T20:36:54.175Z,3.85
2023-04-27T20:41:58.124Z,3.53
2023-04-27T20:47:00.770Z,3.53
2023-04-27T20:52:03.516Z,4.32
2023-04-27T20:57:10.945Z,3.90
2023-04-27T21:02:13.630Z,3.42
2023-04-27T21:07:16.294Z,3.88
2023-04-27T21:12:20.219Z,3.28
2023-04-27T21:17:22.966Z,3.20
2023-04-27T21:22:25.589Z,3.40
2023-04-27T21:27:30.324Z,3.40
2023-04-27T21:32:33.018Z,3.42
2023-04-27T21:37:35.834Z,3.63
2023-04-27T21:42:40.018Z,3.40
2023-04-27T21:47:42.675Z,3.50
2023-04-27T21:52:45.441Z,3.42
2023-04-27T21:57:49.515Z,3.00
2023-04-27T22:02:52.299Z,3.03
2023-04-27T22:07:54.894Z,3.25
2023-04-27T22:13:02.586Z,3.90
2023-04-27T22:18:10.939Z,3.70
2023-04-27T22:23:13.518Z,3.55
2023-04-27T22:28:17.596Z,3.97
2023-04-27T22:33:20.178Z,3.70
2023-04-27T22:38:22.766Z,3.60
2023-04-27T22:43:26.679Z,3.35
2023-04-27T22:48:29.208Z,3.70
2023-04-27T22:53:31.775Z,3.60
2023-04-27T22:58:36.565Z,3.38
2023-04-27T23:03:39.210Z,3.33
2023-04-27T23:08:44.695Z,3.40
2023-04-27T23:13:50.534Z,3.92
2023-04-27T23:18:53.601Z,3.30
2023-04-27T23:23:56.233Z,3.05
2023-04-27T23:29:00.231Z,3.30
2023-04-27T23:34:03.286Z,3.60
2023-04-27T23:39:05.863Z,4.07
2023-04-27T23:44:09.814Z,4.28
2023-04-27T23:49:12.376Z,3.80
2023-04-27T23:54:16.156Z,3.78
2023-04-27T23:59:20.542Z,4.18
